Time;durP1;ratioP1;P1;durP2;ratioP2;P2;SDS_P1;SDS_P2;PMS_P1;PMS_P2;Temp;Humidity;BMP_temperature;BMP_pressure;BME280_temperature;BME280_humidity;BME280_pressure;Samples;Min_cycle;Max_cycle;Signal;HPM_P1;HPM_P2
2022/02/20 00:00:57;;;;;;;8.63;3.85;;;5.60;99.90;;;;;;5091194;28;20195;-68
2022/02/20 00:03:23;;;;;;;4.13;3.33;;;5.70;99.90;;;;;;5083848;28;20254;-68
2022/02/20 00:05:49;;;;;;;5.97;4.05;;;5.70;99.90;;;;;;5089873;28;20223;-68
2022/02/20 00:08:15;;;;;;;7.18;3.55;;;5.90;99.90;;;;;;5089906;28;20196;-68
2022/02/20 00:10:41;;;;;;;5.40;3.90;;;5.90;99.90;;;;;;5089685;28;20189;-68
2022/02/20 00:13:08;;;;;;;5.95;3.88;;;5.90;99.90;;;;;;5089210;28;20152;-68
2022/02/20 00:15:35;;;;;;;6.43;4.32;;;6.00;99.90;;;;;;5089661;28;20275;-68
2022/02/20 00:18:03;;;;;;;6.28;3.30;;;6.00;99.90;;;;;;5089490;28;20204;-68
2022/02/20 00:20:32;;;;;;;6.10;3.10;;;6.00;99.90;;;;;;5089695;28;20172;-68
2022/02/20 00:23:00;;;;;;;5.97;3.42;;;6.00;99.90;;;;;;5088346;28;20167;-69
2022/02/20 00:25:30;;;;;;;6.30;3.90;;;6.00;99.90;;;;;;5087957;28;20171;-69
2022/02/20 00:27:56;;;;;;;4.95;3.60;;;5.90;99.90;;;;;;5089544;28;20194;-69
2022/02/20 00:30:23;;;;;;;4.43;3.15;;;6.00;99.90;;;;;;5074096;28;20642;-69
2022/02/20 00:32:50;;;;;;;5.43;3.63;;;5.90;99.90;;;;;;5069297;28;20202;-69
2022/02/20 00:35:16;;;;;;;6.28;3.58;;;6.00;99.90;;;;;;5069339;28;20175;-69
2022/02/20 00:37:42;;;;;;;5.68;2.83;;;6.00;99.90;;;;;;5069197;28;20180;-69
2022/02/20 00:40:08;;;;;;;8.70;3.72;;;6.00;99.90;;;;;;5069540;28;20157;-68
2022/02/20 00:42:34;;;;;;;7.18;3.22;;;6.00;99.90;;;;;;5069264;28;20164;-69
2022/02/20 00:45:00;;;;;;;5.80;3.50;;;6.00;99.90;;;;;;5067843;28;20181;-68
2022/02/20 00:47:26;;;;;;;6.57;2.95;;;5.90;99.90;;;;;;5069158;28;20157;-69
2022/02/20 00:49:52;;;;;;;3.97;3.38;;;6.00;99.90;;;;;;5069147;28;20165;-69
2022/02/20 00:52:18;;;;;;;7.45;3.67;;;5.90;99.90;;;;;;5069106;28;20176;-69
2022/02/20 00:54:44;;;;;;;4.90;3.10;;;5.90;99.90;;;;;;5069060;28;20161;-69
2022/02/20 00:57:09;;;;;;;5.53;3.47;;;6.00;99.90;;;;;;5067917;28;20198;-69
2022/02/20 00:59:35;;;;;;;5.18;3.03;;;5.90;99.90;;;;;;5068865;28;20204;-69
2022/02/20 01:02:01;;;;;;;5.95;3.45;;;6.00;99.90;;;;;;5068961;28;20220;-68
2022/02/20 01:04:27;;;;;;;5.55;2.97;;;6.00;99.90;;;;;;5068820;28;20299;-69
2022/02/20 01:06:55;;;;;;;4.47;2.65;;;6.00;99.90;;;;;;5068947;28;20613;-69
2022/02/20 01:09:22;;;;;;;5.47;3.10;;;5.90;99.90;;;;;;5068872;28;20196;-69
2022/02/20 01:11:48;;;;;;;4.90;3.08;;;5.90;99.90;;;;;;5068884;28;20189;-69
2022/02/20 01:14:14;;;;;;;6.22;3.35;;;5.80;99.90;;;;;;5069069;28;20176;-69
2022/02/20 01:16:40;;;;;;;4.68;2.75;;;5.80;99.90;;;;;;5068885;28;20171;-69
2022/02/20 01:19:06;;;;;;;5.55;3.45;;;5.80;99.90;;;;;;5068725;28;20711;-69
2022/02/20 01:21:32;;;;;;;5.65;3.13;;;5.80;99.90;;;;;;5068832;28;20157;-68
2022/02/20 01:23:58;;;;;;;6.95;3.35;;;5.70;99.90;;;;;;5072930;28;20187;-68
2022/02/20 01:26:24;;;;;;;5.10;2.60;;;5.70;99.90;;;;;;5072962;28;20157;-69
2022/02/20 01:28:49;;;;;;;5.15;3.00;;;5.60;99.90;;;;;;5075289;28;20188;-69
2022/02/20 01:31:15;;;;;;;5.10;3.58;;;5.60;99.90;;;;;;5093030;28;20239;-69
2022/02/20 01:33:41;;;;;;;6.63;3.45;;;5.60;99.90;;;;;;5092799;28;20238;-68
2022/02/20 01:36:08;;;;;;;6.88;3.15;;;5.60;99.90;;;;;;5091567;28;20168;-68
2022/02/20 01:38:34;;;;;;;5.20;3.50;;;5.60;99.90;;;;;;5092567;28;20210;-68
2022/02/20 01:41:01;;;;;;;5.75;3.08;;;5.60;99.90;;;;;;5092882;28;20186;-68
2022/02/20 01:43:26;;;;;;;6.45;3.72;;;5.70;99.90;;;;;;5092767;28;20148;-69
2022/02/20 01:45:54;;;;;;;7.55;3.72;;;5.60;99.90;;;;;;5092605;28;20212;-68
2022/02/20 01:48:20;;;;;;;5.93;3.70;;;5.60;99.90;;;;;;5092487;28;20199;-68
2022/02/20 01:50:47;;;;;;;5.82;3.20;;;5.60;99.90;;;;;;5092605;28;20494;-68
2022/02/20 01:53:13;;;;;;;5.47;3.17;;;5.60;99.90;;;;;;5092456;28;20160;-68
2022/02/20 01:55:39;;;;;;;4.20;2.78;;;5.70;99.90;;;;;;5092618;28;20179;-68
2022/02/20 01:58:05;;;;;;;7.65;3.30;;;5.70;99.90;;;;;;5092145;28;20210;-69
2022/02/20 02:00:32;;;;;;;6.95;3.30;;;5.70;99.90;;;;;;5092331;28;20180;-68
2022/02/20 02:02:57;;;;;;;4.45;2.83;;;5.70;99.90;;;;;;5092105;28;20318;-69
2022/02/20 02:05:23;;;;;;;4.13;3.25;;;5.70;99.90;;;;;;5092152;28;20198;-68
2022/02/20 02:07:51;;;;;;;6.78;3.45;;;5.70;99.90;;;;;;5090872;28;20202;-69
2022/02/20 02:10:17;;;;;;;7.15;2.70;;;5.70;99.90;;;;;;5092101;28;20239;-69
2022/02/20 02:12:42;;;;;;;4.10;2.60;;;5.70;99.90;;;;;;5091948;28;20164;-69
2022/02/20 02:15:11;;;;;;;5.57;3.10;;;5.70;99.90;;;;;;5091802;28;20190;-69
2022/02/20 02:17:38;;;;;;;4.28;2.92;;;5.70;99.90;;;;;;5091694;28;20182;-68
2022/02/20 02:20:07;;;;;;;3.42;3.00;;;5.70;99.90;;;;;;5091827;28;20152;-69
2022/02/20 02:22:33;;;;;;;5.88;3.22;;;5.70;99.90;;;;;;5091713;28;20198;-69
2022/02/20 02:25:00;;;;;;;5.95;2.70;;;5.70;99.90;;;;;;5091731;28;20515;-69
2022/02/20 02:27:27;;;;;;;6.32;2.30;;;5.70;99.90;;;;;;5091761;28;20160;-68
2022/02/20 02:29:53;;;;;;;5.78;2.75;;;5.60;99.90;;;;;;5091911;28;20156;-69
2022/02/20 02:32:21;;;;;;;3.72;2.55;;;5.60;99.90;;;;;;5091742;28;20188;-68
2022/02/20 02:34:48;;;;;;;3.72;2.35;;;5.50;99.90;;;;;;5090925;28;20182;-69
2022/02/20 02:37:14;;;;;;;4.20;2.75;;;5.50;99.90;;;;;;5091755;28;20158;-68
2022/02/20 02:39:41;;;;;;;4.13;3.08;;;5.50;99.90;;;;;;5091592;28;20195;-68
2022/02/20 02:42:09;;;;;;;3.17;2.33;;;5.40;99.90;;;;;;5091577;28;20188;-69
2022/02/20 02:44:36;;;;;;;4.15;2.58;;;5.50;99.90;;;;;;5090380;28;20255;-69
2022/02/20 02:47:02;;;;;;;4.40;2.70;;;5.50;99.90;;;;;;5091649;28;20156;-69
2022/02/20 02:49:28;;;;;;;5.00;2.55;;;5.50;99.90;;;;;;5091442;28;20191;-69
2022/02/20 02:51:54;;;;;;;4.20;2.85;;;5.50;99.90;;;;;;5091306;28;20192;-69
2022/02/20 02:54:22;;;;;;;5.75;3.15;;;5.60;99.90;;;;;;5091358;28;20152;-68
2022/02/20 02:56:49;;;;;;;6.53;3.13;;;5.50;99.90;;;;;;5091320;28;20178;-69
2022/02/20 02:59:17;;;;;;;4.80;3.28;;;5.50;99.90;;;;;;5074831;28;20208;-69
2022/02/20 03:01:44;;;;;;;3.67;2.45;;;5.50;99.90;;;;;;5070385;28;20165;-69
2022/02/20 03:04:10;;;;;;;4.20;2.60;;;5.50;99.90;;;;;;5070903;28;20223;-69
2022/02/20 03:06:36;;;;;;;2.65;2.33;;;5.60;99.90;;;;;;5071080;28;20161;-69
2022/02/20 03:09:06;;;;;;;4.13;2.85;;;5.50;99.90;;;;;;5070941;28;20751;-68
2022/02/20 03:11:32;;;;;;;2.95;2.20;;;5.50;99.90;;;;;;5071011;28;20157;-68
2022/02/20 03:13:59;;;;;;;6.05;2.45;;;5.50;99.90;;;;;;5070910;28;20625;-68
2022/02/20 03:16:25;;;;;;;3.95;2.53;;;5.50;99.90;;;;;;5069567;28;20168;-69
2022/02/20 03:18:52;;;;;;;5.35;2.95;;;5.60;99.90;;;;;;5070731;28;20232;-69
2022/02/20 03:21:17;;;;;;;4.40;2.53;;;5.50;99.90;;;;;;5070739;28;20204;-69
2022/02/20 03:23:43;;;;;;;3.03;2.22;;;5.60;99.90;;;;;;5070692;28;20152;-68
2022/02/20 03:26:09;;;;;;;4.40;2.80;;;5.60;99.90;;;;;;5069413;28;20169;-68
2022/02/20 03:28:35;;;;;;;3.92;2.53;;;5.50;99.90;;;;;;5070550;28;20184;-69
2022/02/20 03:31:01;;;;;;;3.13;2.40;;;5.50;99.90;;;;;;5070600;28;20191;-68
2022/02/20 03:33:28;;;;;;;3.25;2.22;;;5.50;99.90;;;;;;5070521;28;20225;-69
2022/02/20 03:35:55;;;;;;;6.18;2.55;;;5.50;99.90;;;;;;5070479;28;20165;-69
2022/02/20 03:38:20;;;;;;;4.72;2.90;;;5.50;99.90;;;;;;5070208;28;20210;-69
2022/02/20 03:40:46;;;;;;;7.47;3.35;;;5.50;99.90;;;;;;5070425;28;20160;-69
2022/02/20 03:43:12;;;;;;;6.93;2.95;;;5.40;99.90;;;;;;5070265;28;20172;-69
2022/02/20 03:45:38;;;;;;;5.82;3.42;;;5.30;99.90;;;;;;5070335;28;20212;-68
2022/02/20 03:48:04;;;;;;;6.45;3.65;;;5.20;99.90;;;;;;5070178;28;20601;-68
2022/02/20 03:50:30;;;;;;;4.30;2.88;;;5.10;99.90;;;;;;5070079;28;20576;-69
2022/02/20 03:52:56;;;;;;;5.25;2.65;;;5.10;99.90;;;;;;5070316;28;20157;-68
2022/02/20 03:55:22;;;;;;;5.22;2.40;;;5.10;99.90;;;;;;5070100;28;20164;-69
2022/02/20 03:57:48;;;;;;;6.97;2.80;;;5.10;99.90;;;;;;5069972;28;20199;-68
2022/02/20 04:00:21;;;;;;;3.03;2.60;;;5.10;99.90;;;;;;5070025;28;20172;-68
2022/02/20 04:02:47;;;;;;;3.33;3.00;;;5.00;99.90;;;;;;5069772;28;20208;-68
2022/02/20 04:05:14;;;;;;;5.00;2.80;;;4.80;99.90;;;;;;5069858;28;20183;-68
2022/02/20 04:07:41;;;;;;;3.22;2.42;;;4.60;99.90;;;;;;5069774;28;20606;-68
2022/02/20 04:10:10;;;;;;;4.97;2.50;;;4.40;99.90;;;;;;5069850;28;20627;-69
2022/02/20 04:12:37;;;;;;;3.03;2.10;;;4.20;99.90;;;;;;5069861;28;20149;-69
2022/02/20 04:15:06;;;;;;;4.68;2.67;;;4.00;99.90;;;;;;5069703;28;20179;-69
2022/02/20 04:17:45;;;;;;;4.57;2.47;;;3.90;99.90;;;;;;5069603;28;20163;-68
2022/02/20 04:20:18;;;;;;;5.90;2.42;;;3.70;99.90;;;;;;5069558;28;20153;-69
2022/02/20 04:22:46;;;;;;;5.22;2.40;;;3.60;99.90;;;;;;5069633;28;20156;-69
2022/02/20 04:25:12;;;;;;;3.42;2.22;;;3.60;99.90;;;;;;5069640;28;20164;-68
2022/02/20 04:27:39;;;;;;;4.20;2.53;;;3.50;99.90;;;;;;5069423;28;20650;-68
2022/02/20 04:30:07;;;;;;;4.25;2.60;;;3.50;99.90;;;;;;5069450;28;20160;-69
2022/02/20 04:32:34;;;;;;;3.95;3.00;;;3.40;99.90;;;;;;5069422;28;20164;-68
2022/02/20 04:35:01;;;;;;;4.65;2.65;;;3.30;99.90;;;;;;5069433;28;20512;-68
2022/02/20 04:37:27;;;;;;;3.15;2.47;;;3.20;99.90;;;;;;5069484;28;20199;-68
2022/02/20 04:39:53;;;;;;;5.80;2.35;;;3.10;99.90;;;;;;5069149;28;20220;-69
2022/02/20 04:42:19;;;;;;;4.07;2.67;;;3.00;99.90;;;;;;5069232;28;20157;-68
2022/02/20 04:44:45;;;;;;;3.72;2.58;;;2.90;99.90;;;;;;5069223;28;20227;-68
2022/02/20 04:47:11;;;;;;;4.25;2.85;;;2.80;99.90;;;;;;5069230;28;20161;-69
2022/02/20 04:49:37;;;;;;;4.05;2.47;;;2.70;99.90;;;;;;5069092;28;20192;-68
2022/02/20 04:52:03;;;;;;;5.50;2.42;;;2.60;99.90;;;;;;5069279;28;20169;-69
2022/02/20 04:54:29;;;;;;;6.03;2.67;;;2.60;99.90;;;;;;5069179;28;20169;-68
2022/02/20 04:56:55;;;;;;;4.07;2.35;;;2.60;99.90;;;;;;5069084;28;20693;-68
2022/02/20 04:59:22;;;;;;;4.28;3.28;;;2.50;99.90;;;;;;5068391;28;20219;-68
2022/02/20 05:01:48;;;;;;;9.27;4.00;;;2.40;99.90;;;;;;5069043;28;20149;-68
2022/02/20 05:04:14;;;;;;;4.93;2.85;;;2.50;99.90;;;;;;5068884;28;20254;-68
2022/02/20 05:06:40;;;;;;;4.32;3.25;;;2.40;99.90;;;;;;5068930;28;20185;-68
2022/02/20 05:09:06;;;;;;;4.72;3.33;;;2.40;99.90;;;;;;5068901;28;20218;-68
2022/02/20 05:11:32;;;;;;;4.80;3.40;;;2.40;99.90;;;;;;5069009;28;20160;-69
2022/02/20 05:13:59;;;;;;;6.05;3.15;;;2.50;99.90;;;;;;5068961;28;20168;-69
2022/02/20 05:16:28;;;;;;;7.20;3.88;;;2.60;99.90;;;;;;5068788;28;20153;-69
2022/02/20 05:18:54;;;;;;;6.07;3.15;;;2.50;99.90;;;;;;5068710;28;20200;-68
2022/02/20 05:21:21;;;;;;;8.02;3.47;;;2.50;99.90;;;;;;5068971;28;20160;-69
2022/02/20 05:23:47;;;;;;;6.32;3.60;;;2.40;99.90;;;;;;5068960;28;20160;-68
2022/02/20 05:26:13;;;;;;;4.00;2.92;;;2.30;99.90;;;;;;5068848;28;20622;-68
2022/02/20 05:28:40;;;;;;;5.53;3.42;;;2.20;99.90;;;;;;5068685;28;20208;-68
2022/02/20 05:31:06;;;;;;;6.65;3.70;;;2.20;99.90;;;;;;5068721;28;20217;-69
2022/02/20 05:33:31;;;;;;;7.53;4.38;;;2.20;99.90;;;;;;5068800;28;20661;-69
2022/02/20 05:35:58;;;;;;;4.40;3.30;;;2.20;99.90;;;;;;5068660;28;20168;-69
2022/02/20 05:38:24;;;;;;;5.47;3.63;;;2.10;99.90;;;;;;5068496;28;20291;-69
2022/02/20 05:40:50;;;;;;;7.38;3.63;;;2.10;99.90;;;;;;5068718;28;20157;-68
2022/02/20 05:43:16;;;;;;;5.70;4.00;;;2.20;99.90;;;;;;5068664;28;20206;-69
2022/02/20 05:45:42;;;;;;;5.30;4.38;;;2.20;99.90;;;;;;5068594;28;20244;-69
2022/02/20 05:48:08;;;;;;;6.50;4.22;;;2.30;99.90;;;;;;5068438;28;20260;-68
2022/02/20 05:50:34;;;;;;;7.10;4.40;;;2.40;99.90;;;;;;5067260;28;20200;-68
2022/02/20 05:53:01;;;;;;;11.48;5.32;;;2.40;99.90;;;;;;5068587;28;20186;-68
2022/02/20 05:55:27;;;;;;;10.43;5.47;;;2.50;99.90;;;;;;5067175;28;20173;-69
2022/02/20 05:57:55;;;;;;;9.45;5.55;;;2.60;99.90;;;;;;5068365;28;20199;-68
2022/02/20 06:00:30;;;;;;;10.63;6.28;;;2.60;99.90;;;;;;5068505;28;20157;-69
2022/02/20 06:02:57;;;;;;;13.00;6.03;;;2.70;99.90;;;;;;5068401;28;20226;-68
2022/02/20 06:05:22;;;;;;;8.40;5.80;;;2.80;99.90;;;;;;5068384;28;20165;-68
2022/02/20 06:07:48;;;;;;;9.93;5.90;;;2.80;99.90;;;;;;5068492;28;20191;-69
2022/02/20 06:10:14;;;;;;;10.18;5.75;;;2.90;99.90;;;;;;5069879;28;20244;-68
2022/02/20 06:12:40;;;;;;;11.35;6.15;;;2.90;99.90;;;;;;5072097;28;20224;-70
2022/02/20 06:15:08;;;;;;;14.00;6.15;;;2.80;99.90;;;;;;5072054;28;20157;-71
2022/02/20 06:17:35;;;;;;;7.18;5.22;;;2.80;99.90;;;;;;5070655;28;20179;-70
2022/02/20 06:20:01;;;;;;;8.73;5.10;;;2.90;99.90;;;;;;5071960;28;20159;-71
2022/02/20 06:22:27;;;;;;;12.43;5.88;;;2.90;99.90;;;;;;5071909;28;20157;-70
2022/02/20 06:24:53;;;;;;;7.38;4.75;;;2.90;99.90;;;;;;5071946;28;20227;-71
2022/02/20 06:27:19;;;;;;;7.13;5.07;;;2.80;99.90;;;;;;5071833;28;20606;-70
2022/02/20 06:29:45;;;;;;;9.90;5.68;;;2.90;99.90;;;;;;5071701;28;20196;-69
2022/02/20 06:32:11;;;;;;;9.57;6.07;;;2.80;99.90;;;;;;5071700;28;20161;-70
2022/02/20 06:34:37;;;;;;;12.70;5.13;;;2.70;99.90;;;;;;5071700;28;20200;-70
2022/02/20 06:37:04;;;;;;;10.82;5.95;;;2.70;99.90;;;;;;5071664;28;20188;-70
2022/02/20 06:39:31;;;;;;;8.60;4.95;;;2.70;99.90;;;;;;5071587;28;20204;-70
2022/02/20 06:41:57;;;;;;;9.80;6.55;;;2.70;99.90;;;;;;5071567;28;20173;-70
2022/02/20 06:44:23;;;;;;;9.43;6.05;;;2.80;99.90;;;;;;5071585;28;20161;-70
2022/02/20 06:46:49;;;;;;;7.88;5.43;;;2.80;99.90;;;;;;5071402;28;20220;-70
2022/02/20 06:49:15;;;;;;;10.48;5.97;;;2.80;99.90;;;;;;5071414;28;20199;-70
2022/02/20 06:51:40;;;;;;;7.63;5.60;;;2.90;99.90;;;;;;5071348;28;20245;-69
2022/02/20 06:54:06;;;;;;;7.80;5.43;;;3.00;99.90;;;;;;5071285;28;20161;-69
2022/02/20 06:56:33;;;;;;;8.27;5.93;;;3.10;99.90;;;;;;5071308;28;20167;-69
2022/02/20 06:58:59;;;;;;;8.30;5.13;;;3.20;99.90;;;;;;5071216;28;20211;-69
2022/02/20 07:01:25;;;;;;;11.95;6.85;;;3.40;99.90;;;;;;5071170;28;20160;-69
2022/02/20 07:03:52;;;;;;;8.90;5.60;;;3.50;99.90;;;;;;5070968;28;20251;-69
2022/02/20 07:06:17;;;;;;;10.13;5.68;;;3.70;99.90;;;;;;5071052;28;20228;-69
2022/02/20 07:08:43;;;;;;;8.77;4.63;;;3.90;99.90;;;;;;5070936;28;20196;-69
2022/02/20 07:11:09;;;;;;;8.07;5.07;;;4.00;99.90;;;;;;5069752;28;20172;-69
2022/02/20 07:13:35;;;;;;;8.45;5.22;;;4.20;99.90;;;;;;5070945;28;20216;-69
2022/02/20 07:16:01;;;;;;;7.70;3.88;;;4.30;99.90;;;;;;5070939;28;20164;-69
2022/02/20 07:18:27;;;;;;;9.45;4.22;;;4.50;99.90;;;;;;5070689;28;20208;-69
2022/02/20 07:20:53;;;;;;;6.70;4.15;;;4.60;99.90;;;;;;5070429;28;20152;-69
2022/02/20 07:23:19;;;;;;;9.82;4.60;;;4.80;99.90;;;;;;5070829;28;20153;-68
2022/02/20 07:25:45;;;;;;;4.95;3.78;;;5.10;99.90;;;;;;5069493;28;20186;-68
2022/02/20 07:28:11;;;;;;;7.28;4.28;;;5.10;99.90;;;;;;5070552;28;20203;-69
2022/02/20 07:30:38;;;;;;;6.25;4.00;;;5.00;99.90;;;;;;5070614;28;20161;-71
2022/02/20 07:33:05;;;;;;;10.77;5.20;;;5.10;99.90;;;;;;5070716;28;20161;-72
2022/02/20 07:35:32;;;;;;;6.97;4.50;;;5.50;99.90;;;;;;5070469;28;20164;-70
2022/02/20 07:37:59;;;;;;;6.72;4.38;;;6.60;99.90;;;;;;5070292;28;20227;-69
2022/02/20 07:40:24;;;;;;;9.00;4.93;;;6.60;99.90;;;;;;5070456;28;20163;-69
2022/02/20 07:42:51;;;;;;;12.88;4.68;;;6.90;99.90;;;;;;5070388;28;20157;-70
2022/02/20 07:45:21;;;;;;;7.53;3.58;;;7.00;99.90;;;;;;5070342;28;20188;-69
2022/02/20 07:47:59;;;;;;;6.82;3.70;;;7.30;99.90;;;;;;5070331;28;20156;-69
2022/02/20 07:50:28;;;;;;;6.65;4.07;;;7.10;99.90;;;;;;5068910;28;20199;-69
2022/02/20 07:52:55;;;;;;;9.75;5.15;;;7.00;99.90;;;;;;5070045;28;20172;-69
2022/02/20 07:55:21;;;;;;;8.05;3.85;;;7.10;99.90;;;;;;5068917;28;20168;-69
2022/02/20 07:57:48;;;;;;;10.00;4.95;;;7.70;99.90;;;;;;5070005;28;20153;-69
2022/02/20 08:00:16;;;;;;;8.63;4.65;;;8.80;99.90;;;;;;5069008;28;20172;-70
2022/02/20 08:02:43;;;;;;;10.27;6.25;;;8.60;99.90;;;;;;5069834;28;20296;-70
2022/02/20 08:05:09;;;;;;;10.38;5.20;;;8.10;99.90;;;;;;5070124;28;20161;-69
2022/02/20 08:07:35;;;;;;;6.43;5.25;;;7.60;99.90;;;;;;5070067;28;20187;-70
2022/02/20 08:10:02;;;;;;;10.82;5.35;;;7.20;99.90;;;;;;5069916;28;20223;-70
2022/02/20 08:12:28;;;;;;;8.18;5.88;;;7.20;99.90;;;;;;5073774;28;20175;-69
2022/02/20 08:14:55;;;;;;;6.88;4.80;;;6.90;99.90;;;;;;5080792;28;20168;-69
2022/02/20 08:17:22;;;;;;;6.57;4.75;;;6.80;99.90;;;;;;5076721;28;20160;-69
2022/02/20 08:19:48;;;;;;;7.43;4.60;;;6.80;99.90;;;;;;5069581;28;20204;-69
2022/02/20 08:22:15;;;;;;;7.30;4.40;;;8.20;99.90;;;;;;5087988;28;20168;-69
2022/02/20 08:24:43;;;;;;;9.18;4.63;;;8.20;99.90;;;;;;5089760;28;20182;-70
2022/02/20 08:27:10;;;;;;;6.18;3.85;;;7.90;99.90;;;;;;5089648;28;20216;-69
2022/02/20 08:29:36;;;;;;;6.20;3.78;;;7.80;99.90;;;;;;5080831;28;20189;-69
2022/02/20 08:32:02;;;;;;;6.32;4.32;;;8.10;99.90;;;;;;5067864;28;20183;-70
2022/02/20 08:34:29;;;;;;;9.18;4.03;;;9.40;99.90;;;;;;5069181;28;20535;-69
2022/02/20 08:36:55;;;;;;;7.93;4.57;;;12.90;99.90;;;;;;5069482;28;20196;-69
2022/02/20 08:39:21;;;;;;;5.95;4.05;;;14.80;99.90;;;;;;5069156;28;20201;-69
2022/02/20 08:41:47;;;;;;;7.53;4.40;;;14.20;99.90;;;;;;5068021;28;20172;-70
2022/02/20 08:44:13;;;;;;;7.13;4.25;;;11.50;99.90;;;;;;5069336;28;20164;-70
2022/02/20 08:46:39;;;;;;;10.77;4.72;;;12.20;99.90;;;;;;5077634;28;20190;-70
2022/02/20 08:49:05;;;;;;;7.45;4.57;;;13.10;99.90;;;;;;5089294;28;20196;-70
2022/02/20 08:51:32;;;;;;;9.48;3.92;;;13.60;99.90;;;;;;5089348;28;20181;-70
2022/02/20 08:53:58;;;;;;;8.25;4.07;;;14.00;99.90;;;;;;5089232;28;20629;-70
2022/02/20 08:56:26;;;;;;;9.18;5.13;;;14.30;99.90;;;;;;5089311;28;20213;-71
2022/02/20 08:58:54;;;;;;;7.32;4.20;;;15.30;99.90;;;;;;5089320;28;20258;-71
2022/02/20 09:01:20;;;;;;;4.75;3.67;;;16.30;99.90;;;;;;5089294;28;20144;-70
2022/02/20 09:03:46;;;;;;;11.07;4.70;;;16.90;99.90;;;;;;5089064;28;20272;-72
2022/02/20 09:06:13;;;;;;;7.00;3.85;;;15.20;99.90;;;;;;5089126;28;20180;-71
2022/02/20 09:08:39;;;;;;;9.15;3.85;;;13.90;99.90;;;;;;5089119;28;20198;-71
2022/02/20 09:11:05;;;;;;;16.95;5.00;;;13.00;99.90;;;;;;5088014;28;20183;-71
2022/02/20 09:13:31;;;;;;;6.65;4.53;;;12.50;99.90;;;;;;5088892;28;20198;-70
2022/02/20 09:15:57;;;;;;;8.20;4.35;;;12.50;99.90;;;;;;5104506;28;20167;-71
2022/02/20 09:18:23;;;;;;;15.60;5.03;;;13.60;99.90;;;;;;5091975;28;20199;-71
2022/02/20 09:20:49;;;;;;;8.40;4.50;;;14.80;99.90;;;;;;5106594;28;20217;-71
2022/02/20 09:23:14;;;;;;;6.63;4.13;;;13.90;99.90;;;;;;5088686;28;20171;-69
2022/02/20 09:25:42;;;;;;;8.88;4.45;;;12.60;99.90;;;;;;5102128;28;20163;-71
2022/02/20 09:28:07;;;;;;;9.50;4.28;;;12.20;99.90;;;;;;5090105;28;20195;-71
2022/02/20 09:30:33;;;;;;;12.43;5.60;;;11.40;99.90;;;;;;5087294;28;20166;-70
2022/02/20 09:32:59;;;;;;;6.80;4.78;;;10.80;99.90;;;;;;5087107;28;20167;-69
2022/02/20 09:35:25;;;;;;;7.43;4.68;;;10.70;99.90;;;;;;5087730;28;20156;-68
2022/02/20 09:37:52;;;;;;;11.88;4.82;;;10.10;99.90;;;;;;5087444;28;20227;-69
2022/02/20 09:40:18;;;;;;;8.25;4.38;;;9.90;99.90;;;;;;5088822;28;20152;-68
2022/02/20 09:42:44;;;;;;;13.57;4.88;;;9.90;99.90;;;;;;5088621;28;20175;-68
2022/02/20 09:45:11;;;;;;;11.02;4.72;;;10.20;99.90;;;;;;5091800;28;20152;-68
2022/02/20 09:47:39;;;;;;;13.05;5.75;;;10.10;99.90;;;;;;5092816;28;20174;-69
2022/02/20 09:50:06;;;;;;;8.43;5.30;;;10.50;99.90;;;;;;5091550;28;20587;-69
2022/02/20 09:52:32;;;;;;;8.05;5.63;;;11.30;99.90;;;;;;5091285;28;20193;-68
2022/02/20 09:54:58;;;;;;;6.57;4.63;;;11.80;99.90;;;;;;5092716;28;20163;-69
2022/02/20 09:57:24;;;;;;;8.60;5.68;;;12.30;99.90;;;;;;5091339;28;20172;-68
2022/02/20 09:59:50;;;;;;;10.13;4.45;;;11.60;99.90;;;;;;5092480;28;20187;-69
2022/02/20 10:02:20;;;;;;;8.90;4.80;;;11.30;99.90;;;;;;5092320;28;20160;-69
2022/02/20 10:04:48;;;;;;;7.15;5.00;;;11.00;99.90;;;;;;5092337;28;20202;-69
2022/02/20 10:07:34;;;;;;;9.23;5.50;;;10.80;99.90;;;;;;5090964;28;20160;-68
2022/02/20 10:10:17;;;;;;;6.18;4.43;;;10.70;99.90;;;;;;5092346;28;20289;-68
2022/02/20 10:12:44;;;;;;;5.55;4.35;;;10.50;99.90;;;;;;5092057;28;20184;-68
2022/02/20 10:15:39;;;;;;;7.28;4.95;;;11.60;99.90;;;;;;5092203;28;20167;-69
2022/02/20 10:18:11;;;;;;;4.97;4.45;;;13.60;99.90;;;;;;5090783;28;20196;-69
2022/02/20 10:20:37;;;;;;;7.93;4.95;;;14.10;99.90;;;;;;5083277;28;20200;-69
2022/02/20 10:23:08;;;;;;;6.60;4.22;;;14.00;99.90;;;;;;5071485;28;20193;-68
2022/02/20 10:25:34;;;;;;;12.77;5.57;;;14.30;99.90;;;;;;5070439;28;20169;-69
2022/02/20 10:28:05;;;;;;;10.73;5.45;;;13.60;99.90;;;;;;5071844;28;20167;-68
2022/02/20 10:30:33;;;;;;;12.77;4.80;;;13.60;99.90;;;;;;5071842;28;20579;-68
2022/02/20 10:33:16;;;;;;;7.45;4.72;;;13.90;99.90;;;;;;5070179;28;20216;-68
2022/02/20 10:35:48;;;;;;;8.73;4.88;;;14.40;99.90;;;;;;5071668;28;20618;-68
2022/02/20 10:38:16;;;;;;;6.85;4.65;;;15.10;99.90;;;;;;5070627;28;20427;-69
2022/02/20 10:40:44;;;;;;;9.00;5.18;;;15.00;99.90;;;;;;5071289;28;20160;-69
2022/02/20 10:43:33;;;;;;;8.35;4.80;;;14.10;99.90;;;;;;5071407;28;20196;-69
2022/02/20 10:46:13;;;;;;;23.48;6.93;;;13.70;99.90;;;;;;5071455;28;20153;-69
2022/02/20 10:48:44;;;;;;;16.42;5.07;;;13.80;99.90;;;;;;5071533;28;20165;-69
2022/02/20 10:51:12;;;;;;;10.05;5.75;;;14.00;99.90;;;;;;5071315;28;20161;-69
2022/02/20 10:53:38;;;;;;;14.52;6.18;;;14.40;99.90;;;;;;5071272;28;20692;-69
2022/02/20 10:56:04;;;;;;;15.95;5.97;;;15.20;99.90;;;;;;5070568;28;20167;-68
2022/02/20 10:58:32;;;;;;;20.42;6.07;;;15.30;99.90;;;;;;5071059;28;20295;-69
2022/02/20 11:01:01;;;;;;;17.35;7.60;;;14.80;99.90;;;;;;5071092;28;20172;-68
2022/02/20 11:03:29;;;;;;;14.13;6.40;;;14.10;99.90;;;;;;5070778;28;20220;-68
2022/02/20 11:05:57;;;;;;;15.93;7.10;;;13.40;99.90;;;;;;5069671;28;20161;-69
2022/02/20 11:08:26;;;;;;;9.18;5.68;;;12.90;99.90;;;;;;5071017;28;20197;-68
2022/02/20 11:10:53;;;;;;;15.13;7.93;;;12.80;99.90;;;;;;5068735;28;20695;-69
2022/02/20 11:13:20;;;;;;;39.97;16.05;;;13.20;99.90;;;;;;5077028;28;20179;-69
2022/02/20 11:15:48;;;;;;;24.88;11.82;;;13.20;99.90;;;;;;5090316;28;20214;-69
2022/02/20 11:18:16;;;;;;;20.13;9.32;;;13.40;99.90;;;;;;5090878;28;20195;-68
2022/02/20 11:20:49;;;;;;;6.45;4.70;;;12.50;99.90;;;;;;5083414;28;20165;-69
2022/02/20 11:23:28;;;;;;;9.57;5.35;;;12.20;99.90;;;;;;5070828;28;20171;-69
2022/02/20 11:25:58;;;;;;;9.73;5.25;;;11.90;99.90;;;;;;5070743;28;20152;-69
2022/02/20 11:28:24;;;;;;;12.23;6.40;;;12.40;99.90;;;;;;5070703;28;20587;-69
2022/02/20 11:30:50;;;;;;;11.15;6.63;;;12.70;99.90;;;;;;5070624;28;20264;-68
2022/02/20 11:33:19;;;;;;;9.10;4.60;;;13.30;99.90;;;;;;5070678;28;20184;-68
2022/02/20 11:35:49;;;;;;;9.85;6.07;;;13.60;99.90;;;;;;5070615;28;20211;-69
2022/02/20 11:38:17;;;;;;;8.45;5.30;;;13.30;99.90;;;;;;5070358;28;20211;-69
2022/02/20 11:40:59;;;;;;;35.95;11.77;;;13.10;99.90;;;;;;5070457;28;20187;-69
2022/02/20 11:43:38;;;;;;;14.40;5.15;;;13.30;99.90;;;;;;5070722;28;20161;-69
2022/02/20 11:46:05;;;;;;;16.85;7.28;;;13.50;99.90;;;;;;5070464;28;20157;-68
2022/02/20 11:48:32;;;;;;;9.32;5.85;;;13.80;99.90;;;;;;5070334;28;20196;-69
2022/02/20 11:51:15;;;;;;;14.18;6.00;;;13.20;99.90;;;;;;5070306;28;20224;-69
2022/02/20 11:53:41;;;;;;;6.93;5.10;;;13.20;99.90;;;;;;5070307;28;20634;-69
2022/02/20 11:56:11;;;;;;;7.65;4.00;;;13.10;99.90;;;;;;5069433;28;20180;-69
2022/02/20 11:58:39;;;;;;;8.75;5.22;;;12.40;99.90;;;;;;5078127;28;20223;-68
2022/02/20 12:01:07;;;;;;;17.83;4.78;;;12.10;99.90;;;;;;5069524;28;20220;-69
2022/02/20 12:04:00;;;;;;;4.70;3.53;;;11.80;99.90;;;;;;5069726;28;20227;-69
2022/02/20 12:06:28;;;;;;;7.68;4.55;;;11.60;99.90;;;;;;5068461;28;20168;-69
2022/02/20 12:08:57;;;;;;;7.50;4.55;;;11.20;99.90;;;;;;5068864;28;20255;-69
2022/02/20 12:11:45;;;;;;;4.65;3.63;;;10.90;99.90;;;;;;5069383;28;20160;-68
2022/02/20 12:14:22;;;;;;;6.13;3.50;;;10.90;99.90;;;;;;5075467;28;20181;-68
2022/02/20 12:16:50;;;;;;;5.30;3.30;;;11.30;99.90;;;;;;5067195;28;20176;-69
2022/02/20 12:19:19;;;;;;;8.48;5.13;;;11.50;99.90;;;;;;5069469;28;20200;-69
2022/02/20 12:22:00;;;;;;;5.10;2.70;;;11.60;99.90;;;;;;5085789;28;20160;-69
2022/02/20 12:24:28;;;;;;;3.25;2.47;;;11.50;99.90;;;;;;5089551;28;20174;-69
2022/02/20 12:27:00;;;;;;;4.78;3.03;;;11.30;99.90;;;;;;5089627;28;20152;-69
2022/02/20 12:29:39;;;;;;;7.65;4.03;;;11.20;99.90;;;;;;5088345;28;20629;-69
2022/02/20 12:32:12;;;;;;;5.43;3.22;;;11.50;99.90;;;;;;5089236;28;20158;-69
2022/02/20 12:35:08;;;;;;;4.80;3.10;;;11.60;99.90;;;;;;5089468;28;20531;-69
2022/02/20 12:37:43;;;;;;;6.13;3.60;;;11.80;99.90;;;;;;5089388;28;20188;-69
2022/02/20 12:40:21;;;;;;;4.60;3.25;;;12.00;99.90;;;;;;5089295;28;20163;-68
2022/02/20 12:42:55;;;;;;;3.80;3.20;;;11.80;99.90;;;;;;5089049;28;20186;-69
2022/02/20 12:45:25;;;;;;;6.35;3.15;;;11.60;99.90;;;;;;5089175;28;20289;-69
2022/02/20 12:47:53;;;;;;;4.45;3.10;;;11.40;99.90;;;;;;5089280;28;20194;-69
2022/02/20 12:50:22;;;;;;;6.50;3.70;;;11.30;99.90;;;;;;5088437;28;20469;-68
2022/02/20 12:52:49;;;;;;;5.88;3.20;;;11.30;99.90;;;;;;5088859;28;20156;-69
2022/02/20 12:55:18;;;;;;;6.32;3.50;;;11.60;99.90;;;;;;5088914;28;20156;-68